sensor_id;sensor_type;location;lat;lon;timestamp;pressure;altitude;pressure_sealevel;temperature;humidity
18436;BME280;9346;52.006;4.720;2022-09-09T00:00:13;100645.41;;;16.44;100.00
18436;BME280;9346;52.006;4.720;2022-09-09T00:02:47;100646.56;;;16.43;100.00
18436;BME280;9346;52.006;4.720;2022-09-09T00:05:20;100647.16;;;16.40;100.00
18436;BME280;9346;52.006;4.720;2022-09-09T00:07:52;100649.13;;;16.40;100.00
18436;BME280;9346;52.006;4.720;2022-09-09T00:10:25;100645.00;;;16.37;100.00
18436;BME280;9346;52.006;4.720;2022-09-09T00:12:59;100644.00;;;16.33;100.00
18436;BME280;9346;52.006;4.720;2022-09-09T00:15:33;100649.88;;;16.32;100.00
18436;BME280;9346;52.006;4.720;2022-09-09T00:18:13;100646.28;;;16.31;100.00
18436;BME280;9346;52.006;4.720;2022-09-09T00:20:46;100643.00;;;16.29;100.00
18436;BME280;9346;52.006;4.720;2022-09-09T00:23:23;100643.13;;;16.24;100.00
18436;BME280;9346;52.006;4.720;2022-09-09T00:26:00;100640.97;;;16.21;100.00
18436;BME280;9346;52.006;4.720;2022-09-09T00:28:32;100639.97;;;16.17;100.00
18436;BME280;9346;52.006;4.720;2022-09-09T00:31:04;100638.13;;;16.13;100.00
18436;BME280;9346;52.006;4.720;2022-09-09T00:33:39;100633.53;;;16.08;100.00
18436;BME280;9346;52.006;4.720;2022-09-09T00:36:12;100631.69;;;16.04;100.00
18436;BME280;9346;52.006;4.720;2022-09-09T00:38:43;100642.78;;;16.04;100.00
18436;BME280;9346;52.006;4.720;2022-09-09T00:41:17;100638.38;;;16.03;100.00
18436;BME280;9346;52.006;4.720;2022-09-09T00:43:53;100624.28;;;15.99;100.00
18436;BME280;9346;52.006;4.720;2022-09-09T00:46:50;100622.81;;;15.93;100.00
18436;BME280;9346;52.006;4.720;2022-09-09T00:49:30;100621.75;;;15.89;100.00
18436;BME280;9346;52.006;4.720;2022-09-09T00:52:13;100617.97;;;15.85;100.00
18436;BME280;9346;52.006;4.720;2022-09-09T00:54:49;100622.38;;;15.86;100.00
18436;BME280;9346;52.006;4.720;2022-09-09T00:57:26;100619.13;;;15.84;100.00
18436;BME280;9346;52.006;4.720;2022-09-09T01:00:17;100620.91;;;15.80;100.00
18436;BME280;9346;52.006;4.720;2022-09-09T01:02:53;100625.09;;;15.78;100.00
18436;BME280;9346;52.006;4.720;2022-09-09T01:05:30;100621.00;;;15.75;100.00
18436;BME280;9346;52.006;4.720;2022-09-09T01:08:01;100625.72;;;15.75;100.00
18436;BME280;9346;52.006;4.720;2022-09-09T01:10:36;100634.06;;;15.75;100.00
18436;BME280;9346;52.006;4.720;2022-09-09T01:13:11;100634.56;;;15.77;100.00
18436;BME280;9346;52.006;4.720;2022-09-09T01:15:41;100640.97;;;15.77;100.00
18436;BME280;9346;52.006;4.720;2022-09-09T01:18:13;100619.38;;;15.74;100.00
18436;BME280;9346;52.006;4.720;2022-09-09T01:20:51;100626.34;;;15.72;100.00
18436;BME280;9346;52.006;4.720;2022-09-09T01:23:35;100618.66;;;15.69;100.00
18436;BME280;9346;52.006;4.720;2022-09-09T01:26:22;100613.13;;;15.69;100.00
18436;BME280;9346;52.006;4.720;2022-09-09T01:28:52;100605.91;;;15.68;100.00
18436;BME280;9346;52.006;4.720;2022-09-09T01:31:20;100597.88;;;15.66;100.00
18436;BME280;9346;52.006;4.720;2022-09-09T01:33:49;100607.88;;;15.67;100.00
18436;BME280;9346;52.006;4.720;2022-09-09T01:36:21;100602.31;;;15.67;100.00
18436;BME280;9346;52.006;4.720;2022-09-09T01:38:51;100595.63;;;15.68;100.00
18436;BME280;9346;52.006;4.720;2022-09-09T01:41:20;100596.47;;;15.69;100.00
18436;BME280;9346;52.006;4.720;2022-09-09T01:43:48;100595.50;;;15.73;100.00
18436;BME280;9346;52.006;4.720;2022-09-09T01:46:16;100599.41;;;15.72;100.00
18436;BME280;9346;52.006;4.720;2022-09-09T01:48:45;100599.94;;;15.74;100.00
18436;BME280;9346;52.006;4.720;2022-09-09T01:51:12;100600.41;;;15.76;100.00
18436;BME280;9346;52.006;4.720;2022-09-09T01:53:40;100592.59;;;15.78;100.00
18436;BME280;9346;52.006;4.720;2022-09-09T01:56:18;100591.78;;;15.78;100.00
18436;BME280;9346;52.006;4.720;2022-09-09T01:59:01;100597.00;;;15.79;100.00
18436;BME280;9346;52.006;4.720;2022-09-09T02:01:41;100600.31;;;15.81;100.00
18436;BME280;9346;52.006;4.720;2022-09-09T02:04:23;100593.94;;;15.81;100.00
18436;BME280;9346;52.006;4.720;2022-09-09T02:06:56;100599.78;;;15.79;100.00
18436;BME280;9346;52.006;4.720;2022-09-09T02:09:24;100608.13;;;15.79;100.00
18436;BME280;9346;52.006;4.720;2022-09-09T02:11:55;100600.94;;;15.78;100.00
18436;BME280;9346;52.006;4.720;2022-09-09T02:14:30;100598.16;;;15.78;100.00
18436;BME280;9346;52.006;4.720;2022-09-09T02:17:03;100601.47;;;15.80;100.00
18436;BME280;9346;52.006;4.720;2022-09-09T02:19:37;100595.91;;;15.80;100.00
18436;BME280;9346;52.006;4.720;2022-09-09T02:22:05;100588.38;;;15.81;100.00
18436;BME280;9346;52.006;4.720;2022-09-09T02:24:36;100589.19;;;15.81;100.00
18436;BME280;9346;52.006;4.720;2022-09-09T02:27:05;100590.34;;;15.80;100.00
18436;BME280;9346;52.006;4.720;2022-09-09T02:29:38;100591.97;;;15.81;100.00
18436;BME280;9346;52.006;4.720;2022-09-09T02:32:11;100582.00;;;15.80;100.00
18436;BME280;9346;52.006;4.720;2022-09-09T02:34:43;100585.59;;;15.81;100.00
18436;BME280;9346;52.006;4.720;2022-09-09T02:37:12;100575.63;;;15.80;100.00
18436;BME280;9346;52.006;4.720;2022-09-09T02:39:41;100575.94;;;15.78;100.00
18436;BME280;9346;52.006;4.720;2022-09-09T02:42:09;100571.53;;;15.77;100.00
18436;BME280;9346;52.006;4.720;2022-09-09T02:44:38;100566.28;;;15.76;100.00
18436;BME280;9346;52.006;4.720;2022-09-09T02:47:19;100563.84;;;15.74;100.00
18436;BME280;9346;52.006;4.720;2022-09-09T02:50:01;100558.59;;;15.73;100.00
18436;BME280;9346;52.006;4.720;2022-09-09T02:52:36;100550.56;;;15.71;100.00
18436;BME280;9346;52.006;4.720;2022-09-09T02:55:11;100554.66;;;15.74;100.00
18436;BME280;9346;52.006;4.720;2022-09-09T02:57:43;100548.28;;;15.73;100.00
18436;BME280;9346;52.006;4.720;2022-09-09T03:00:14;100562.16;;;15.73;100.00
18436;BME280;9346;52.006;4.720;2022-09-09T03:02:41;100555.50;;;15.74;100.00
18436;BME280;9346;52.006;4.720;2022-09-09T03:05:10;100563.31;;;15.72;100.00
18436;BME280;9346;52.006;4.720;2022-09-09T03:07:38;100564.47;;;15.71;100.00
18436;BME280;9346;52.006;4.720;2022-09-09T03:10:06;100551.69;;;15.70;100.00
18436;BME280;9346;52.006;4.720;2022-09-09T03:12:33;100565.91;;;15.69;100.00
18436;BME280;9346;52.006;4.720;2022-09-09T03:15:00;100555.44;;;15.66;100.00
18436;BME280;9346;52.006;4.720;2022-09-09T03:17:28;100555.13;;;15.67;100.00
18436;BME280;9346;52.006;4.720;2022-09-09T03:19:55;100553.16;;;15.68;100.00
18436;BME280;9346;52.006;4.720;2022-09-09T03:22:23;100559.00;;;15.66;100.00
18436;BME280;9346;52.006;4.720;2022-09-09T03:24:50;100559.31;;;15.64;100.00
18436;BME280;9346;52.006;4.720;2022-09-09T03:27:18;100556.06;;;15.63;100.00
18436;BME280;9346;52.006;4.720;2022-09-09T03:29:46;100558.00;;;15.62;100.00
18436;BME280;9346;52.006;4.720;2022-09-09T03:32:14;100548.84;;;15.61;100.00
18436;BME280;9346;52.006;4.720;2022-09-09T03:34:44;100564.41;;;15.63;100.00
18436;BME280;9346;52.006;4.720;2022-09-09T03:37:12;100557.50;;;15.60;100.00
18436;BME280;9346;52.006;4.720;2022-09-09T03:39:39;100549.47;;;15.58;100.00
18436;BME280;9346;52.006;4.720;2022-09-09T03:42:06;100544.53;;;15.55;100.00
18436;BME280;9346;52.006;4.720;2022-09-09T03:44:33;100547.66;;;15.54;100.00
18436;BME280;9346;52.006;4.720;2022-09-09T03:47:00;100551.56;;;15.53;100.00
18436;BME280;9346;52.006;4.720;2022-09-09T03:49:27;100538.00;;;15.51;100.00
18436;BME280;9346;52.006;4.720;2022-09-09T03:51:56;100539.13;;;15.50;100.00
18436;BME280;9346;52.006;4.720;2022-09-09T03:54:24;100540.28;;;15.49;100.00
18436;BME280;9346;52.006;4.720;2022-09-09T03:56:52;100543.69;;;15.46;100.00
18436;BME280;9346;52.006;4.720;2022-09-09T03:59:19;100546.56;;;15.41;100.00
18436;BME280;9346;52.006;4.720;2022-09-09T04:01:46;100543.31;;;15.39;100.00
18436;BME280;9346;52.006;4.720;2022-09-09T04:04:13;100539.16;;;15.37;100.00
18436;BME280;9346;52.006;4.720;2022-09-09T04:06:40;100534.53;;;15.32;100.00
18436;BME280;9346;52.006;4.720;2022-09-09T04:09:09;100532.06;;;15.31;100.00
18436;BME280;9346;52.006;4.720;2022-09-09T04:11:36;100532.06;;;15.31;100.00
18436;BME280;9346;52.006;4.720;2022-09-09T04:14:03;100528.78;;;15.29;100.00
18436;BME280;9346;52.006;4.720;2022-09-09T04:16:31;100530.44;;;15.30;100.00
18436;BME280;9346;52.006;4.720;2022-09-09T04:18:58;100520.47;;;15.29;100.00
18436;BME280;9346;52.006;4.720;2022-09-09T04:21:25;100517.50;;;15.25;100.00
18436;BME280;9346;52.006;4.720;2022-09-09T04:23:52;100515.84;;;15.24;100.00
18436;BME280;9346;52.006;4.720;2022-09-09T04:26:21;100520.56;;;15.24;100.00
18436;BME280;9346;52.006;4.720;2022-09-09T04:28:48;100519.44;;;15.25;100.00
18436;BME280;9346;52.006;4.720;2022-09-09T04:31:17;100519.78;;;15.23;100.00
18436;BME280;9346;52.006;4.720;2022-09-09T04:33:45;100522.22;;;15.25;100.00
18436;BME280;9346;52.006;4.720;2022-09-09T04:36:12;100522.22;;;15.25;100.00
18436;BME280;9346;52.006;4.720;2022-09-09T04:38:39;100520.56;;;15.24;100.00
18436;BME280;9346;52.006;4.720;2022-09-09T04:41:07;100523.88;;;15.26;100.00
18436;BME280;9346;52.006;4.720;2022-09-09T04:43:38;100521.41;;;15.24;100.00
18436;BME280;9346;52.006;4.720;2022-09-09T04:46:06;100514.22;;;15.23;100.00
18436;BME280;9346;52.006;4.720;2022-09-09T04:48:33;100515.03;;;15.24;100.00
18436;BME280;9346;52.006;4.720;2022-09-09T04:51:02;100519.44;;;15.25;100.00
18436;BME280;9346;52.006;4.720;2022-09-09T04:53:30;100520.25;;;15.25;100.00
18436;BME280;9346;52.006;4.720;2022-09-09T04:56:03;100518.31;;;15.26;100.00
18436;BME280;9346;52.006;4.720;2022-09-09T04:58:31;100516.34;;;15.26;100.00
18436;BME280;9346;52.006;4.720;2022-09-09T05:01:05;100519.34;;;15.30;100.00
18436;BME280;9346;52.006;4.720;2022-09-09T05:03:32;100514.31;;;15.32;100.00
18436;BME280;9346;52.006;4.720;2022-09-09T05:06:04;100513.16;;;15.33;100.00
18436;BME280;9346;52.006;4.720;2022-09-09T05:08:32;100514.78;;;15.34;100.00
18436;BME280;9346;52.006;4.720;2022-09-09T05:10:59;100511.69;;;15.35;100.00
18436;BME280;9346;52.006;4.720;2022-09-09T05:13:26;100513.69;;;15.35;100.00
18436;BME280;9346;52.006;4.720;2022-09-09T05:15:53;100514.19;;;15.37;100.00
18436;BME280;9346;52.006;4.720;2022-09-09T05:18:22;100514.19;;;15.37;100.00
18436;BME280;9346;52.006;4.720;2022-09-09T05:20:49;100511.94;;;15.39;100.00
18436;BME280;9346;52.006;4.720;2022-09-09T05:23:17;100513.63;;;15.48;100.00
18436;BME280;9346;52.006;4.720;2022-09-09T05:25:53;100504.38;;;15.53;100.00
18436;BME280;9346;52.006;4.720;2022-09-09T05:28:20;100511.06;;;15.52;100.00
18436;BME280;9346;52.006;4.720;2022-09-09T05:30:55;100509.81;;;15.58;100.00
18436;BME280;9346;52.006;4.720;2022-09-09T05:33:24;100509.81;;;15.58;100.00
18436;BME280;9346;52.006;4.720;2022-09-09T05:35:56;100500.84;;;15.61;100.00
18436;BME280;9346;52.006;4.720;2022-09-09T05:38:23;100505.25;;;15.62;100.00
18436;BME280;9346;52.006;4.720;2022-09-09T05:40:51;100510.69;;;15.67;100.00
18436;BME280;9346;52.006;4.720;2022-09-09T05:43:19;100502.53;;;15.71;100.00
18436;BME280;9346;52.006;4.720;2022-09-09T05:45:46;100505.00;;;15.72;100.00
18436;BME280;9346;52.006;4.720;2022-09-09T05:48:14;100517.13;;;15.76;100.00
18436;BME280;9346;52.006;4.720;2022-09-09T05:50:43;100512.91;;;15.79;100.00
18436;BME280;9346;52.006;4.720;2022-09-09T05:53:11;100509.66;;;15.85;100.00
18436;BME280;9346;52.006;4.720;2022-09-09T05:55:38;100508.22;;;15.88;100.00
18436;BME280;9346;52.006;4.720;2022-09-09T05:58:05;100514.97;;;15.95;100.00
18436;BME280;9346;52.006;4.720;2022-09-09T06:00:32;100522.03;;;16.01;100.00
18436;BME280;9346;52.006;4.720;2022-09-09T06:02:59;100521.28;;;16.09;100.00
18436;BME280;9346;52.006;4.720;2022-09-09T06:05:26;100517.50;;;16.14;100.00
18436;BME280;9346;52.006;4.720;2022-09-09T06:07:56;100514.94;;;16.17;100.00
18436;BME280;9346;52.006;4.720;2022-09-09T06:10:22;100513.34;;;16.25;100.00
18436;BME280;9346;52.006;4.720;2022-09-09T06:12:52;100511.75;;;16.32;100.00
18436;BME280;9346;52.006;4.720;2022-09-09T06:15:20;100511.09;;;16.35;100.00
18436;BME280;9346;52.006;4.720;2022-09-09T06:17:54;100504.28;;;16.41;100.00
18436;BME280;9346;52.006;4.720;2022-09-09T06:20:21;100505.78;;;16.47;100.00
18436;BME280;9346;52.006;4.720;2022-09-09T06:22:48;100505.13;;;16.50;100.00
18436;BME280;9346;52.006;4.720;2022-09-09T06:25:17;100509.25;;;16.53;100.00
18436;BME280;9346;52.006;4.720;2022-09-09T06:27:48;100503.84;;;16.56;100.00
18436;BME280;9346;52.006;4.720;2022-09-09T06:30:16;100508.78;;;16.59;100.00
18436;BME280;9346;52.006;4.720;2022-09-09T06:32:45;100499.78;;;16.62;100.00
18436;BME280;9346;52.006;4.720;2022-09-09T06:35:12;100505.84;;;16.64;100.00
18436;BME280;9346;52.006;4.720;2022-09-09T06:37:40;100497.50;;;16.64;100.00
18436;BME280;9346;52.006;4.720;2022-09-09T06:40:11;100508.31;;;16.66;100.00
18436;BME280;9346;52.006;4.720;2022-09-09T06:42:42;100504.38;;;16.67;100.00
18436;BME280;9346;52.006;4.720;2022-09-09T06:45:09;100507.00;;;16.72;100.00
18436;BME280;9346;52.006;4.720;2022-09-09T06:47:37;100508.81;;;16.76;100.00
18436;BME280;9346;52.006;4.720;2022-09-09T06:50:05;100509.00;;;16.80;100.00
18436;BME280;9346;52.006;4.720;2022-09-09T06:52:34;100500.34;;;16.81;100.00
18436;BME280;9346;52.006;4.720;2022-09-09T06:55:03;100503.63;;;16.83;100.00
18436;BME280;9346;52.006;4.720;2022-09-09T06:57:30;100505.41;;;16.88;100.00
18436;BME280;9346;52.006;4.720;2022-09-09T06:59:59;100498.72;;;16.89;100.00
18436;BME280;9346;52.006;4.720;2022-09-09T07:02:26;100496.09;;;16.92;100.00
18436;BME280;9346;52.006;4.720;2022-09-09T07:04:53;100496.59;;;16.94;100.00
18436;BME280;9346;52.006;4.720;2022-09-09T07:07:20;100493.81;;;16.94;100.00
18436;BME280;9346;52.006;4.720;2022-09-09T07:09:48;100495.94;;;16.97;100.00
18436;BME280;9346;52.006;4.720;2022-09-09T07:12:15;100495.78;;;17.02;100.00
18436;BME280;9346;52.006;4.720;2022-09-09T07:14:42;100491.56;;;17.05;100.00
18436;BME280;9346;52.006;4.720;2022-09-09T07:17:11;100496.78;;;17.06;100.00
18436;BME280;9346;52.006;4.720;2022-09-09T07:19:38;100487.47;;;17.11;100.00
18436;BME280;9346;52.006;4.720;2022-09-09T07:22:05;100485.66;;;17.15;100.00
18436;BME280;9346;52.006;4.720;2022-09-09T07:24:32;100486.97;;;17.17;100.00
18436;BME280;9346;52.006;4.720;2022-09-09T07:26:58;100482.38;;;17.21;100.00
18436;BME280;9346;52.006;4.720;2022-09-09T07:29:26;100491.41;;;17.27;100.00
18436;BME280;9346;52.006;4.720;2022-09-09T07:31:53;100484.50;;;17.33;100.00
18436;BME280;9346;52.006;4.720;2022-09-09T07:34:21;100481.25;;;17.39;100.00
18436;BME280;9346;52.006;4.720;2022-09-09T07:36:48;100485.03;;;17.43;100.00
18436;BME280;9346;52.006;4.720;2022-09-09T07:39:15;100490.94;;;17.50;100.00
18436;BME280;9346;52.006;4.720;2022-09-09T07:41:44;100485.53;;;17.54;100.00
18436;BME280;9346;52.006;4.720;2022-09-09T07:44:13;100484.88;;;17.57;100.00
18436;BME280;9346;52.006;4.720;2022-09-09T07:46:41;100478.66;;;17.60;100.00
18436;BME280;9346;52.006;4.720;2022-09-09T07:49:10;100484.56;;;17.58;100.00
18436;BME280;9346;52.006;4.720;2022-09-09T07:51:42;100481.91;;;17.62;100.00
18436;BME280;9346;52.006;4.720;2022-09-09T07:54:10;100475.03;;;17.59;100.00
18436;BME280;9346;52.006;4.720;2022-09-09T07:56:39;100482.59;;;17.59;100.00
18436;BME280;9346;52.006;4.720;2022-09-09T07:59:06;100476.19;;;17.58;100.00
18436;BME280;9346;52.006;4.720;2022-09-09T08:01:35;100476.19;;;17.58;100.00
18436;BME280;9346;52.006;4.720;2022-09-09T08:04:08;100475.03;;;17.59;100.00
18436;BME280;9346;52.006;4.720;2022-09-09T08:06:48;100475.38;;;17.58;100.00
18436;BME280;9346;52.006;4.720;2022-09-09T08:09:27;100476.34;;;17.53;100.00
18436;BME280;9346;52.006;4.720;2022-09-09T08:12:06;100480.28;;;17.52;100.00
18436;BME280;9346;52.006;4.720;2022-09-09T08:15:07;100479.78;;;17.50;100.00
18436;BME280;9346;52.006;4.720;2022-09-09T08:17:42;100475.88;;;17.51;100.00
18436;BME280;9346;52.006;4.720;2022-09-09T08:20:22;100476.69;;;17.52;100.00
18436;BME280;9346;52.006;4.720;2022-09-09T08:22:54;100477.34;;;17.49;100.00
18436;BME280;9346;52.006;4.720;2022-09-09T08:25:33;100474.88;;;17.47;100.00
18436;BME280;9346;52.006;4.720;2022-09-09T08:28:17;100485.38;;;17.50;100.00
18436;BME280;9346;52.006;4.720;2022-09-09T08:30:48;100482.25;;;17.52;100.00
18436;BME280;9346;52.006;4.720;2022-09-09T08:33:18;100484.06;;;17.56;100.00
18436;BME280;9346;52.006;4.720;2022-09-09T08:36:29;100492.91;;;17.58;100.00
18436;BME280;9346;52.006;4.720;2022-09-09T08:39:08;100491.09;;;17.62;100.00
18436;BME280;9346;52.006;4.720;2022-09-09T08:41:43;100488.81;;;17.64;100.00
18436;BME280;9346;52.006;4.720;2022-09-09T08:44:23;100489.94;;;17.63;100.00
18436;BME280;9346;52.006;4.720;2022-09-09T08:47:01;100488.81;;;17.64;100.00
18436;BME280;9346;52.006;4.720;2022-09-09T08:49:51;100494.06;;;17.66;100.00
18436;BME280;9346;52.006;4.720;2022-09-09T08:52:26;100503.72;;;17.68;100.00
18436;BME280;9346;52.006;4.720;2022-09-09T08:55:10;100490.94;;;17.67;100.00
18436;BME280;9346;52.006;4.720;2022-09-09T08:57:40;100485.38;;;17.67;100.00
18436;BME280;9346;52.006;4.720;2022-09-09T09:00:09;100491.75;;;17.68;100.00
18436;BME280;9346;52.006;4.720;2022-09-09T09:02:42;100497.16;;;17.64;100.00
18436;BME280;9346;52.006;4.720;2022-09-09T09:05:19;100498.47;;;17.67;100.00
18436;BME280;9346;52.006;4.720;2022-09-09T09:07:59;100500.44;;;17.66;100.00
18436;BME280;9346;52.006;4.720;2022-09-09T09:10:44;100498.28;;;17.63;100.00
18436;BME280;9346;52.006;4.720;2022-09-09T09:13:15;100512.41;;;17.58;100.00
18436;BME280;9346;52.006;4.720;2022-09-09T09:15:44;100507.16;;;17.57;100.00
18436;BME280;9346;52.006;4.720;2022-09-09T09:18:13;100511.09;;;17.56;100.00
18436;BME280;9346;52.006;4.720;2022-09-09T09:20:47;100516.16;;;17.54;100.00
18436;BME280;9346;52.006;4.720;2022-09-09T09:23:21;100517.47;;;17.56;100.00
18436;BME280;9346;52.006;4.720;2022-09-09T09:25:56;100507.66;;;17.59;100.00
18436;BME280;9346;52.006;4.720;2022-09-09T09:28:29;100516.03;;;17.59;100.00
18436;BME280;9346;52.006;4.720;2022-09-09T09:31:01;100514.53;;;17.61;100.00
18436;BME280;9346;52.006;4.720;2022-09-09T09:33:34;100514.84;;;17.60;100.00
18436;BME280;9346;52.006;4.720;2022-09-09T09:36:02;100526.31;;;17.58;100.00
18436;BME280;9346;52.006;4.720;2022-09-09T09:38:34;100525.81;;;17.56;100.00
18436;BME280;9346;52.006;4.720;2022-09-09T09:41:03;100524.84;;;17.52;100.00
18436;BME280;9346;52.006;4.720;2022-09-09T09:43:33;100522.72;;;17.49;100.00
18436;BME280;9346;52.006;4.720;2022-09-09T09:46:00;100520.59;;;17.46;100.00
18436;BME280;9346;52.006;4.720;2022-09-09T09:48:30;100524.03;;;17.43;100.00
18436;BME280;9346;52.006;4.720;2022-09-09T09:50:59;100524.03;;;17.43;100.00
18436;BME280;9346;52.006;4.720;2022-09-09T09:53:29;100523.22;;;17.43;100.00
18436;BME280;9346;52.006;4.720;2022-09-09T09:55:59;100514.19;;;17.46;100.00
18436;BME280;9346;52.006;4.720;2022-09-09T09:58:30;100521.22;;;17.52;100.00
18436;BME280;9346;52.006;4.720;2022-09-09T10:00:59;100527.97;;;17.59;100.00
18436;BME280;9346;52.006;4.720;2022-09-09T10:03:29;100531.25;;;17.70;100.00
18436;BME280;9346;52.006;4.720;2022-09-09T10:05:56;100516.63;;;17.82;100.00
18436;BME280;9346;52.006;4.720;2022-09-09T10:08:24;100521.72;;;17.97;100.00
18436;BME280;9346;52.006;4.720;2022-09-09T10:11:12;100510.19;;;18.07;100.00
18436;BME280;9346;52.006;4.720;2022-09-09T10:13:54;100510.50;;;18.14;100.00
18436;BME280;9346;52.006;4.720;2022-09-09T10:16:31;100497.22;;;18.19;100.00
18436;BME280;9346;52.006;4.720;2022-09-09T10:19:03;100495.72;;;18.22;100.00
18436;BME280;9346;52.006;4.720;2022-09-09T10:21:52;100491.78;;;18.23;100.00
18436;BME280;9346;52.006;4.720;2022-09-09T10:27:25;100479.66;;;18.27;100.00
18436;BME280;9346;52.006;4.720;2022-09-09T10:30:03;100486.84;;;18.28;100.00
18436;BME280;9346;52.006;4.720;2022-09-09T10:32:41;100491.91;;;18.35;100.00
18436;BME280;9346;52.006;4.720;2022-09-09T10:35:24;100490.47;;;18.37;100.00
18436;BME280;9346;52.006;4.720;2022-09-09T10:38:12;100492.91;;;18.39;100.00
18436;BME280;9346;52.006;4.720;2022-09-09T10:40:49;100489.78;;;18.40;100.00
18436;BME280;9346;52.006;4.720;2022-09-09T10:43:39;100488.81;;;18.36;100.00
18436;BME280;9346;52.006;4.720;2022-09-09T10:46:14;100495.50;;;18.35;100.00
18436;BME280;9346;52.006;4.720;2022-09-09T10:48:56;100495.72;;;18.30;100.00
18436;BME280;9346;52.006;4.720;2022-09-09T10:51:34;100494.94;;;18.13;100.00
18436;BME280;9346;52.006;4.720;2022-09-09T10:54:31;100497.41;;;18.06;100.00
18436;BME280;9346;52.006;4.720;2022-09-09T10:57:05;100500.69;;;18.08;100.00
18436;BME280;9346;52.006;4.720;2022-09-09T10:59:38;100495.44;;;18.06;100.00
18436;BME280;9346;52.006;4.720;2022-09-09T11:02:13;100505.59;;;18.11;100.00
18436;BME280;9346;52.006;4.720;2022-09-09T11:04:47;100492.00;;;18.09;100.00
18436;BME280;9346;52.006;4.720;2022-09-09T11:07:22;100499.84;;;18.07;100.00
18436;BME280;9346;52.006;4.720;2022-09-09T11:09:56;100501.84;;;18.07;100.00
18436;BME280;9346;52.006;4.720;2022-09-09T11:12:28;100493.94;;;18.17;100.00
18436;BME280;9346;52.006;4.720;2022-09-09T11:14:59;100492.44;;;18.28;100.00
18436;BME280;9346;52.006;4.720;2022-09-09T11:17:35;100495.50;;;18.35;100.00
18436;BME280;9346;52.006;4.720;2022-09-09T11:20:05;100486.00;;;18.36;100.00
18436;BME280;9346;52.006;4.720;2022-09-09T11:22:36;100494.38;;;18.45;100.00
18436;BME280;9346;52.006;4.720;2022-09-09T11:25:10;100485.28;;;18.56;100.00
18436;BME280;9346;52.006;4.720;2022-09-09T11:27:50;100490.78;;;18.73;100.00
18436;BME280;9346;52.006;4.720;2022-09-09T11:30:21;100481.19;;;18.83;100.00
18436;BME280;9346;52.006;4.720;2022-09-09T11:33:13;100487.25;;;18.85;100.00
18436;BME280;9346;52.006;4.720;2022-09-09T11:35:58;100483.31;;;18.86;100.00
18436;BME280;9346;52.006;4.720;2022-09-09T11:38:32;100480.84;;;18.84;100.00
18436;BME280;9346;52.006;4.720;2022-09-09T11:41:05;100483.81;;;18.88;100.00
18436;BME280;9346;52.006;4.720;2022-09-09T11:43:39;100479.03;;;18.88;100.00
18436;BME280;9346;52.006;4.720;2022-09-09T11:46:08;100477.53;;;18.91;100.00
18436;BME280;9346;52.006;4.720;2022-09-09T11:48:40;100470.13;;;18.95;100.00
18436;BME280;9346;52.006;4.720;2022-09-09T11:51:12;100472.41;;;18.93;100.00
18436;BME280;9346;52.006;4.720;2022-09-09T11:53:53;100472.47;;;18.84;100.00
18436;BME280;9346;52.006;4.720;2022-09-09T11:56:26;100485.81;;;18.79;100.00
18436;BME280;9346;52.006;4.720;2022-09-09T11:58:56;100488.03;;;18.65;100.00
18436;BME280;9346;52.006;4.720;2022-09-09T12:01:38;100498.25;;;18.61;100.00
18436;BME280;9346;52.006;4.720;2022-09-09T12:04:30;100481.84;;;18.59;100.00
18436;BME280;9346;52.006;4.720;2022-09-09T12:07:00;100498.91;;;18.58;100.00
18436;BME280;9346;52.006;4.720;2022-09-09T12:09:44;100506.78;;;18.56;100.00
18436;BME280;9346;52.006;4.720;2022-09-09T12:12:25;100510.41;;;18.56;100.00
18436;BME280;9346;52.006;4.720;2022-09-09T12:15:24;100497.44;;;18.52;100.00
18436;BME280;9346;52.006;4.720;2022-09-09T12:17:55;100500.72;;;18.54;100.00
18436;BME280;9346;52.006;4.720;2022-09-09T12:20:33;100506.78;;;18.56;100.00
18436;BME280;9346;52.006;4.720;2022-09-09T12:23:17;100492.16;;;18.59;100.00
18436;BME280;9346;52.006;4.720;2022-09-09T12:25:54;100492.50;;;18.57;100.00
18436;BME280;9346;52.006;4.720;2022-09-09T12:28:27;100505.28;;;18.58;100.00
18436;BME280;9346;52.006;4.720;2022-09-09T12:31:05;100505.81;;;18.52;100.00
18436;BME280;9346;52.006;4.720;2022-09-09T12:33:35;100504.38;;;18.46;100.00
18436;BME280;9346;52.006;4.720;2022-09-09T12:36:11;100507.66;;;18.39;100.00
18436;BME280;9346;52.006;4.720;2022-09-09T12:38:41;100502.41;;;18.38;100.00
18436;BME280;9346;52.006;4.720;2022-09-09T12:41:19;100514.41;;;18.30;100.00
18436;BME280;9346;52.006;4.720;2022-09-09T12:43:46;100527.84;;;18.28;100.00
18436;BME280;9346;52.006;4.720;2022-09-09T12:46:21;100527.03;;;18.27;100.00
18436;BME280;9346;52.006;4.720;2022-09-09T12:48:52;100538.31;;;18.31;100.00
18436;BME280;9346;52.006;4.720;2022-09-09T12:51:25;100533.72;;;18.35;100.00
18436;BME280;9346;52.006;4.720;2022-09-09T12:53:54;100534.25;;;18.37;100.00
18436;BME280;9346;52.006;4.720;2022-09-09T12:56:24;100539.50;;;18.38;100.00
18436;BME280;9346;52.006;4.720;2022-09-09T12:58:53;100541.94;;;18.40;100.00
18436;BME280;9346;52.006;4.720;2022-09-09T13:01:24;100545.56;;;18.40;100.00
18436;BME280;9346;52.006;4.720;2022-09-09T13:03:52;100537.03;;;18.37;100.00
18436;BME280;9346;52.006;4.720;2022-09-09T13:06:22;100539.16;;;18.31;100.00
18436;BME280;9346;52.006;4.720;2022-09-09T13:08:50;100533.41;;;18.28;100.00
18436;BME280;9346;52.006;4.720;2022-09-09T13:11:21;100534.06;;;18.25;100.00
18436;BME280;9346;52.006;4.720;2022-09-09T13:13:52;100521.97;;;18.21;100.00
18436;BME280;9346;52.006;4.720;2022-09-09T13:16:21;100524.94;;;18.16;100.00
18436;BME280;9346;52.006;4.720;2022-09-09T13:18:49;100522.00;;;18.12;100.00